createdAt,value
2023-04-17T00:01:55.513Z,63.25
2023-04-17T00:04:23.437Z,64.70
2023-04-17T00:06:53.838Z,63.85
2023-04-17T00:09:21.297Z,63.81
2023-04-17T00:11:48.963Z,64.53
2023-04-17T00:14:16.373Z,63.56
2023-04-17T00:16:43.775Z,64.00
2023-04-17T00:19:11.877Z,66.19
2023-04-17T00:21:39.397Z,65.89
2023-04-17T00:24:06.992Z,65.70
2023-04-17T00:26:34.718Z,67.14
2023-04-17T00:29:02.178Z,66.11
2023-04-17T00:31:31.054Z,66.93
2023-04-17T00:33:59.006Z,65.13
2023-04-17T00:36:27.216Z,63.72
2023-04-17T00:38:54.603Z,62.70
2023-04-17T00:41:22.243Z,62.31
2023-04-17T00:43:49.639Z,62.50
2023-04-17T00:46:17.150Z,64.70
2023-04-17T00:48:44.828Z,64.80
2023-04-17T00:51:12.168Z,65.72
2023-04-17T00:53:39.740Z,66.87
2023-04-17T00:56:07.654Z,66.32
2023-04-17T00:58:36.120Z,67.63
2023-04-17T01:01:04.937Z,68.27
2023-04-17T01:03:33.079Z,66.66
2023-04-17T01:06:00.784Z,66.75
2023-04-17T01:08:28.378Z,65.97
2023-04-17T01:10:55.991Z,65.45
2023-04-17T01:13:23.373Z,65.60
2023-04-17T01:15:51.158Z,65.72
2023-04-17T01:18:18.905Z,64.31
2023-04-17T01:20:46.244Z,63.71
2023-04-17T01:23:13.580Z,64.64
2023-04-17T01:25:41.277Z,64.97
2023-04-17T01:28:08.663Z,64.24
2023-04-17T01:30:36.076Z,66.70
2023-04-17T01:33:04.023Z,65.68
2023-04-17T01:35:31.426Z,67.51
2023-04-17T01:37:58.940Z,69.30
2023-04-17T01:40:26.720Z,71.44
2023-04-17T01:42:54.152Z,67.74
2023-04-17T01:45:21.502Z,66.75
2023-04-17T01:47:49.210Z,67.47
2023-04-17T01:50:16.725Z,66.62
2023-04-17T01:52:44.240Z,66.88
2023-04-17T01:55:11.885Z,65.69
2023-04-17T01:57:39.248Z,66.77
2023-04-17T02:00:07.949Z,65.26
2023-04-17T02:02:40.075Z,65.78
2023-04-17T02:05:07.943Z,66.59
2023-04-17T02:07:35.289Z,67.28
2023-04-17T02:10:02.690Z,68.92
2023-04-17T02:12:30.273Z,67.87
2023-04-17T02:15:01.181Z,67.08
2023-04-17T02:17:28.789Z,67.59
2023-04-17T02:19:56.661Z,68.75
2023-04-17T02:22:24.044Z,68.25
2023-04-17T02:24:52.171Z,65.94
2023-04-17T02:27:20.190Z,63.96
2023-04-17T02:29:47.660Z,62.73
2023-04-17T02:32:18.052Z,64.35
2023-04-17T02:34:45.659Z,64.62
2023-04-17T02:37:13.826Z,64.15
2023-04-17T02:39:41.660Z,62.45
2023-04-17T02:42:10.192Z,63.24
2023-04-17T02:44:37.591Z,63.51
2023-04-17T02:47:05.047Z,62.57
2023-04-17T02:49:33.104Z,60.77
2023-04-17T02:52:01.130Z,59.50
2023-04-17T02:54:28.553Z,61.12
2023-04-17T02:56:59.387Z,58.66
2023-04-17T02:59:27.073Z,60.16
2023-04-17T03:01:54.620Z,59.87
2023-04-17T03:04:22.466Z,58.39
2023-04-17T03:06:49.847Z,59.12
2023-04-17T03:09:18.218Z,58.46
2023-04-17T03:11:45.921Z,59.67
2023-04-17T03:14:13.273Z,59.26
2023-04-17T03:16:40.707Z,57.11
2023-04-17T03:19:08.432Z,57.10
2023-04-17T03:21:36.462Z,57.82
2023-04-17T03:24:04.040Z,56.38
2023-04-17T03:26:31.782Z,56.09
2023-04-17T03:28:59.849Z,55.09
2023-04-17T03:31:27.961Z,54.81
2023-04-17T03:33:55.769Z,54.31
2023-04-17T03:36:23.555Z,55.83
2023-04-17T03:38:51.312Z,56.61
2023-04-17T03:41:18.983Z,55.34
2023-04-17T03:43:46.412Z,54.30
2023-04-17T03:46:14.936Z,54.93
2023-04-17T03:48:42.847Z,55.09
2023-04-17T03:51:10.447Z,57.18
2023-04-17T03:53:37.966Z,56.39
2023-04-17T03:56:07.149Z,57.26
2023-04-17T03:58:35.447Z,55.38
2023-04-17T04:01:03.544Z,55.79
2023-04-17T04:03:32.198Z,56.39
2023-04-17T04:05:59.879Z,55.85
2023-04-17T04:08:27.331Z,54.50
2023-04-17T04:10:55.133Z,53.09
2023-04-17T04:13:22.839Z,55.81
2023-04-17T04:15:50.546Z,55.79
2023-04-17T04:18:19.045Z,55.18
2023-04-17T04:20:46.451Z,56.58
2023-04-17T04:23:16.749Z,55.88
2023-04-17T04:25:44.928Z,55.61
2023-04-17T04:28:13.357Z,55.44
2023-04-17T04:30:41.033Z,55.61
2023-04-17T04:33:09.392Z,55.55
2023-04-17T04:35:38.260Z,55.71
2023-04-17T04:38:06.109Z,54.10
2023-04-17T04:40:38.357Z,54.22
2023-04-17T04:43:06.862Z,54.60
2023-04-17T04:45:35.299Z,53.39
2023-04-17T04:48:04.743Z,53.67
2023-04-17T04:50:32.182Z,53.58
2023-04-17T04:53:00.130Z,53.58
2023-04-17T04:55:30.767Z,53.45
2023-04-17T04:57:58.947Z,53.60
2023-04-17T05:00:26.684Z,53.81
2023-04-17T05:02:54.229Z,53.20
2023-04-17T05:05:23.463Z,52.52
2023-04-17T05:07:53.485Z,52.68
2023-04-17T05:10:21.391Z,53.28
2023-04-17T05:12:49.549Z,53.49
2023-04-17T05:15:17.250Z,53.86
2023-04-17T05:17:44.933Z,54.14
2023-04-17T05:20:13.332Z,53.98
2023-04-17T05:22:44.170Z,54.00
2023-04-17T05:25:12.093Z,53.49
2023-04-17T05:27:39.651Z,54.04
2023-04-17T05:30:08.196Z,53.77
2023-04-17T05:32:35.808Z,53.48
2023-04-17T05:35:05.210Z,54.00
2023-04-17T05:37:32.931Z,54.16
2023-04-17T05:40:01.493Z,53.51
2023-04-17T05:42:29.029Z,52.77
2023-04-17T05:44:56.770Z,52.50
2023-04-17T05:47:24.183Z,52.97
2023-04-17T05:49:57.371Z,52.28
2023-04-17T05:52:25.448Z,51.66
2023-04-17T05:54:53.007Z,51.07
2023-04-17T05:57:20.661Z,49.83
2023-04-17T05:59:49.257Z,49.22
2023-04-17T06:02:16.943Z,47.24
2023-04-17T06:04:45.030Z,46.53
2023-04-17T06:07:12.575Z,45.77
2023-04-17T06:09:41.084Z,45.31
2023-04-17T06:12:15.759Z,44.08
2023-04-17T06:14:43.831Z,44.19
2023-04-17T06:17:12.441Z,44.02
2023-04-17T06:19:39.985Z,44.54
2023-04-17T06:22:07.645Z,44.67
2023-04-17T06:24:37.014Z,46.02
2023-04-17T06:27:04.566Z,45.07
2023-04-17T06:29:32.024Z,44.80
2023-04-17T06:31:59.734Z,44.85
2023-04-17T06:34:27.662Z,45.32
2023-04-17T06:36:55.720Z,44.41
2023-04-17T06:39:23.386Z,43.61
2023-04-17T06:41:52.006Z,43.55
2023-04-17T06:44:24.593Z,43.03
2023-04-17T06:46:52.867Z,43.49
2023-04-17T06:49:20.627Z,43.02
2023-04-17T06:51:48.302Z,45.42
2023-04-17T06:54:15.683Z,44.52
2023-04-17T06:56:43.137Z,44.92
2023-04-17T06:59:11.216Z,42.51
2023-04-17T07:01:40.358Z,42.94
2023-04-17T07:04:09.228Z,42.62
2023-04-17T07:06:38.224Z,43.71
2023-04-17T07:09:05.638Z,41.68
2023-04-17T07:11:32.995Z,41.97
2023-04-17T07:14:00.649Z,43.19
2023-04-17T07:16:28.012Z,41.94
2023-04-17T07:18:55.660Z,42.50
2023-04-17T07:21:23.283Z,44.72
2023-04-17T07:23:50.803Z,43.80
2023-04-17T07:26:18.149Z,42.43
2023-04-17T07:28:46.119Z,42.06
2023-04-17T07:31:13.494Z,42.71
2023-04-17T07:33:40.857Z,43.26
2023-04-17T07:36:09.904Z,41.33
2023-04-17T07:38:38.612Z,42.83
2023-04-17T07:41:08.051Z,41.67
2023-04-17T07:43:35.682Z,43.15
2023-04-17T07:46:03.090Z,43.83
2023-04-17T07:48:31.274Z,43.79
2023-04-17T07:51:01.724Z,42.96
2023-04-17T07:53:29.389Z,41.71
2023-04-17T07:55:58.282Z,43.78
2023-04-17T07:58:27.061Z,41.20
2023-04-17T08:00:54.548Z,43.16
2023-04-17T08:03:24.337Z,44.22
2023-04-17T08:05:52.116Z,44.68
2023-04-17T08:08:20.066Z,43.60
2023-04-17T08:10:47.729Z,42.30
2023-04-17T08:13:15.130Z,45.27
2023-04-17T08:15:44.060Z,45.56
2023-04-17T08:18:11.844Z,44.00
2023-04-17T08:20:39.998Z,44.08
2023-04-17T08:23:07.424Z,43.68
2023-04-17T08:25:35.142Z,43.33
2023-04-17T08:28:02.541Z,44.32
2023-04-17T08:30:30.021Z,42.28
2023-04-17T08:32:57.876Z,39.11
2023-04-17T08:35:26.601Z,38.41
2023-04-17T08:37:56.004Z,34.57
2023-04-17T08:40:24.995Z,34.42
2023-04-17T08:42:52.739Z,34.38
2023-04-17T08:45:20.968Z,35.72
2023-04-17T08:47:48.685Z,38.23
2023-04-17T08:50:17.740Z,36.53
2023-04-17T08:52:46.614Z,36.90
2023-04-17T08:55:15.774Z,37.09
2023-04-17T08:58:01.185Z,34.12
2023-04-17T09:00:33.686Z,34.77
2023-04-17T09:03:02.913Z,37.48
2023-04-17T09:05:33.534Z,37.81
2023-04-17T09:08:17.899Z,33.82
2023-04-17T09:10:49.516Z,36.66
2023-04-17T09:13:18.490Z,36.50
2023-04-17T09:15:46.940Z,34.08
2023-04-17T09:18:24.813Z,36.43
2023-04-17T09:20:52.692Z,37.33
2023-04-17T09:23:20.572Z,35.13
2023-04-17T09:25:49.089Z,33.92
2023-04-17T09:28:16.851Z,30.83
2023-04-17T09:30:44.358Z,32.90
2023-04-17T09:33:12.667Z,35.74
2023-04-17T09:35:40.616Z,36.94
2023-04-17T09:38:08.096Z,35.60
2023-04-17T09:40:39.714Z,37.14
2023-04-17T09:43:09.905Z,39.11
2023-04-17T09:45:41.522Z,36.00
2023-04-17T09:48:10.866Z,37.56
2023-04-17T09:50:39.121Z,35.31
2023-04-17T09:53:07.391Z,32.67
2023-04-17T09:55:37.032Z,36.04
2023-04-17T09:58:05.349Z,38.57
2023-04-17T10:00:32.870Z,38.78
2023-04-17T10:03:00.956Z,36.60
2023-04-17T10:05:29.873Z,36.66
2023-04-17T10:07:57.396Z,34.85
2023-04-17T10:10:33.184Z,34.65
2023-04-17T10:13:01.489Z,34.99
2023-04-17T10:15:29.558Z,36.30
2023-04-17T10:18:29.378Z,39.91
2023-04-17T10:20:57.187Z,36.99
2023-04-17T10:23:34.315Z,37.35
2023-04-17T10:26:27.142Z,36.62
2023-04-17T10:28:55.421Z,36.25
2023-04-17T10:31:25.902Z,37.88
2023-04-17T10:33:54.308Z,39.50
2023-04-17T10:36:40.483Z,37.07
2023-04-17T10:39:14.685Z,35.88
2023-04-17T10:42:07.215Z,36.03
2023-04-17T10:44:35.298Z,37.85
2023-04-17T10:47:10.028Z,39.52
2023-04-17T10:49:47.317Z,37.86
2023-04-17T10:52:33.406Z,38.66
2023-04-17T10:55:17.598Z,40.27
2023-04-17T10:58:04.981Z,40.45
2023-04-17T11:00:39.454Z,40.47
2023-04-17T11:03:07.210Z,43.93
2023-04-17T11:05:36.066Z,40.96
2023-04-17T11:08:03.612Z,41.30
2023-04-17T11:10:34.888Z,41.61
2023-04-17T11:13:02.226Z,42.66
2023-04-17T11:15:30.389Z,39.82
2023-04-17T11:17:58.789Z,42.69
2023-04-17T11:20:27.882Z,40.34
2023-04-17T11:22:55.324Z,43.08
2023-04-17T11:25:27.204Z,40.20
2023-04-17T11:27:56.181Z,41.82
2023-04-17T11:30:28.265Z,38.88
2023-04-17T11:32:58.120Z,41.16
2023-04-17T11:35:36.243Z,38.08
2023-04-17T11:38:22.427Z,40.01
2023-04-17T11:40:52.094Z,38.80
2023-04-17T11:43:22.859Z,38.84
2023-04-17T11:45:51.745Z,43.32
2023-04-17T11:48:24.247Z,42.13
2023-04-17T11:50:55.889Z,41.24
2023-04-17T11:53:23.361Z,42.12
2023-04-17T11:56:14.266Z,38.37
2023-04-17T11:59:01.605Z,39.23
2023-04-17T12:01:29.002Z,38.83
2023-04-17T12:03:57.370Z,39.07
2023-04-17T12:06:25.062Z,37.20
2023-04-17T12:08:53.839Z,38.06
2023-04-17T12:11:31.893Z,37.51
2023-04-17T12:13:59.878Z,40.00
2023-04-17T12:16:27.824Z,39.18
2023-04-17T12:18:55.363Z,38.57
2023-04-17T12:21:23.772Z,38.17
2023-04-17T12:23:51.435Z,38.68
2023-04-17T12:26:19.031Z,36.34
2023-04-17T12:28:46.431Z,37.12
2023-04-17T12:31:14.208Z,40.41
2023-04-17T12:33:41.596Z,38.61
2023-04-17T12:36:09.667Z,40.94
2023-04-17T12:38:37.408Z,41.06
2023-04-17T12:41:04.827Z,40.54
2023-04-17T12:43:33.490Z,38.77
2023-04-17T12:46:01.520Z,37.64
2023-04-17T12:48:30.756Z,37.62
2023-04-17T12:50:59.679Z,38.49
2023-04-17T12:53:27.352Z,37.63
2023-04-17T12:55:54.741Z,40.65
2023-04-17T12:58:22.109Z,39.63
2023-04-17T13:00:49.762Z,37.68
2023-04-17T13:03:17.307Z,39.49
2023-04-17T13:05:44.849Z,38.15
2023-04-17T13:08:15.149Z,41.38
2023-04-17T13:10:42.714Z,40.02
2023-04-17T13:13:10.216Z,40.73
2023-04-17T13:15:37.922Z,39.58
2023-04-17T13:18:05.409Z,39.86
2023-04-17T13:20:32.868Z,39.83
2023-04-17T13:23:00.553Z,41.03
2023-04-17T13:25:29.449Z,40.18
2023-04-17T13:27:56.825Z,39.61
2023-04-17T13:30:26.264Z,37.61
2023-04-17T13:32:53.768Z,39.16
2023-04-17T13:35:21.146Z,37.93
2023-04-17T13:37:48.987Z,44.48
2023-04-17T13:40:17.443Z,39.11
2023-04-17T13:42:44.913Z,42.97
2023-04-17T13:45:12.576Z,40.76
2023-04-17T13:47:40.364Z,41.90
2023-04-17T13:50:08.534Z,43.65
2023-04-17T13:52:36.161Z,41.71
2023-04-17T13:55:03.747Z,43.12
2023-04-17T13:57:31.127Z,44.99
2023-04-17T13:59:58.762Z,45.74
2023-04-17T14:02:26.330Z,44.00
2023-04-17T14:04:54.284Z,44.15
2023-04-17T14:07:21.721Z,50.78
2023-04-17T14:09:49.124Z,51.09
2023-04-17T14:12:20.695Z,54.56
2023-04-17T14:14:48.120Z,56.96
2023-04-17T14:17:15.519Z,55.69
2023-04-17T14:19:43.134Z,56.25
2023-04-17T14:22:10.476Z,56.74
2023-04-17T14:24:37.876Z,56.01
2023-04-17T14:27:05.519Z,54.80
2023-04-17T14:29:32.892Z,55.67
2023-04-17T14:32:00.299Z,55.07
2023-04-17T14:34:28.017Z,58.72
2023-04-17T14:36:57.454Z,55.08
2023-04-17T14:39:25.583Z,53.22
2023-04-17T14:41:53.363Z,56.64
2023-04-17T14:44:20.772Z,55.92
2023-04-17T14:46:48.729Z,53.50
2023-04-17T14:49:16.760Z,54.86
2023-04-17T14:51:44.116Z,54.48
2023-04-17T14:54:11.604Z,55.18
2023-04-17T14:56:39.532Z,53.58
2023-04-17T14:59:06.913Z,52.51
2023-04-17T15:01:34.476Z,50.75
2023-04-17T15:04:03.584Z,51.05
2023-04-17T15:06:31.183Z,49.86
2023-04-17T15:08:58.564Z,50.02
2023-04-17T15:11:26.394Z,48.17
2023-04-17T15:13:53.760Z,49.49
2023-04-17T15:16:21.180Z,50.68
2023-04-17T15:18:48.837Z,49.91
2023-04-17T15:21:16.437Z,49.71
2023-04-17T15:23:43.785Z,49.89
2023-04-17T15:26:12.411Z,49.58
2023-04-17T15:28:40.039Z,50.36
2023-04-17T15:31:08.194Z,50.76
2023-04-17T15:33:36.291Z,50.29
2023-04-17T15:36:03.789Z,50.63
2023-04-17T15:38:31.160Z,47.56
2023-04-17T15:40:59.086Z,47.98
2023-04-17T15:43:26.939Z,48.17
2023-04-17T15:45:54.388Z,50.15
2023-04-17T15:48:22.081Z,49.11
2023-04-17T15:50:49.449Z,47.55
2023-04-17T15:53:16.808Z,47.27
2023-04-17T15:55:44.431Z,48.68
2023-04-17T15:58:11.801Z,49.81
2023-04-17T16:00:39.214Z,50.22
2023-04-17T16:03:09.907Z,48.32
2023-04-17T16:05:37.437Z,47.54
2023-04-17T16:08:04.967Z,49.89
2023-04-17T16:10:34.073Z,49.27
2023-04-17T16:13:01.444Z,50.18
2023-04-17T16:15:28.832Z,49.07
2023-04-17T16:17:56.520Z,49.76
2023-04-17T16:20:23.940Z,49.32
2023-04-17T16:22:51.307Z,49.19
2023-04-17T16:25:20.297Z,48.44
2023-04-17T16:27:48.240Z,49.55
2023-04-17T16:30:15.608Z,49.92
2023-04-17T16:32:45.457Z,50.98
2023-04-17T16:35:13.054Z,49.56
2023-04-17T16:37:40.498Z,48.76
2023-04-17T16:40:08.814Z,51.15
2023-04-17T16:42:36.292Z,50.76
2023-04-17T16:45:04.019Z,49.19
2023-04-17T16:47:32.806Z,49.84
2023-04-17T16:50:00.236Z,51.03
2023-04-17T16:52:27.573Z,49.76
2023-04-17T16:54:55.205Z,50.54
2023-04-17T16:57:22.566Z,50.56
2023-04-17T16:59:49.995Z,50.61
2023-04-17T17:02:17.665Z,52.48
2023-04-17T17:04:45.876Z,51.45
2023-04-17T17:07:13.337Z,51.96
2023-04-17T17:09:40.965Z,52.83
2023-04-17T17:12:08.351Z,51.61
2023-04-17T17:14:36.431Z,52.28
2023-04-17T17:17:04.065Z,50.62
2023-04-17T17:19:31.411Z,50.73
2023-04-17T17:21:58.747Z,50.63
2023-04-17T17:24:26.979Z,50.18
2023-04-17T17:26:54.366Z,50.58
2023-04-17T17:29:21.740Z,50.41
2023-04-17T17:31:49.361Z,51.49
2023-04-17T17:34:25.998Z,51.21
2023-04-17T17:36:54.544Z,49.28
2023-04-17T17:39:22.321Z,51.32
2023-04-17T17:41:49.885Z,51.22
2023-04-17T17:44:17.601Z,51.40
2023-04-17T17:46:44.959Z,50.78
2023-04-17T17:49:12.289Z,52.17
2023-04-17T17:51:40.027Z,51.77
2023-04-17T17:54:08.053Z,51.90
2023-04-17T17:56:35.467Z,52.45
2023-04-17T17:59:03.137Z,53.52
2023-04-17T18:01:30.587Z,53.29
2023-04-17T18:03:58.376Z,53.68
2023-04-17T18:06:26.187Z,53.13
2023-04-17T18:08:53.987Z,53.08
2023-04-17T18:11:21.677Z,53.39
2023-04-17T18:13:49.255Z,53.41
2023-04-17T18:16:16.810Z,53.72
2023-04-17T18:18:44.544Z,53.86
2023-04-17T18:21:12.771Z,54.50
2023-04-17T18:23:40.640Z,54.29
2023-04-17T18:26:08.364Z,54.11
2023-04-17T18:28:35.738Z,54.24
2023-04-17T18:31:03.129Z,54.64
2023-04-17T18:33:30.891Z,54.22
2023-04-17T18:35:58.369Z,53.76
2023-04-17T18:38:25.749Z,54.68
2023-04-17T18:40:55.437Z,54.97
2023-04-17T18:43:22.913Z,54.07
2023-04-17T18:45:50.342Z,55.16
2023-04-17T18:48:18.035Z,53.97
2023-04-17T18:50:45.421Z,54.39
2023-04-17T18:53:12.787Z,54.90
2023-04-17T18:55:40.496Z,55.10
2023-04-17T18:58:07.843Z,54.27
2023-04-17T19:00:37.084Z,52.68
2023-04-17T19:03:04.937Z,54.04
2023-04-17T19:05:32.378Z,53.89
2023-04-17T19:07:59.860Z,52.64
2023-04-17T19:10:27.448Z,53.96
2023-04-17T19:12:54.826Z,52.51
2023-04-17T19:15:22.194Z,51.69
2023-04-17T19:17:49.895Z,52.37
2023-04-17T19:20:17.251Z,53.34
2023-04-17T19:22:44.796Z,52.56
2023-04-17T19:25:12.415Z,52.15
2023-04-17T19:27:39.803Z,51.53
2023-04-17T19:30:08.201Z,52.78
2023-04-17T19:32:35.917Z,53.78
2023-04-17T19:35:03.363Z,53.50
2023-04-17T19:37:30.795Z,53.28
2023-04-17T19:39:58.467Z,54.45
2023-04-17T19:42:26.654Z,54.03
2023-04-17T19:44:54.014Z,54.75
2023-04-17T19:47:21.693Z,53.06
2023-04-17T19:49:49.071Z,52.33
2023-04-17T19:52:16.457Z,52.66
2023-04-17T19:54:45.498Z,54.62
2023-04-17T19:57:12.858Z,56.98
2023-04-17T19:59:40.249Z,55.18
2023-04-17T20:02:07.988Z,54.57
2023-04-17T20:04:35.660Z,55.40
2023-04-17T20:07:03.028Z,55.36
2023-04-17T20:09:31.530Z,56.30
2023-04-17T20:11:59.184Z,55.06
2023-04-17T20:14:26.514Z,56.22
2023-04-17T20:16:53.913Z,54.40
2023-04-17T20:19:21.545Z,55.00
2023-04-17T20:21:48.932Z,54.90
2023-04-17T20:24:16.475Z,54.20
2023-04-17T20:26:44.370Z,53.39
2023-04-17T20:29:12.015Z,56.55
2023-04-17T20:31:39.751Z,54.56
2023-04-17T20:34:07.467Z,56.91
2023-04-17T20:36:34.866Z,56.26
2023-04-17T20:39:02.349Z,56.10
2023-04-17T20:41:30.021Z,54.61
2023-04-17T20:43:58.878Z,55.61
2023-04-17T20:46:27.006Z,57.47
2023-04-17T20:48:54.783Z,56.98
2023-04-17T20:51:24.832Z,55.88
2023-04-17T20:53:52.662Z,55.34
2023-04-17T20:56:21.305Z,56.28
2023-04-17T20:58:48.652Z,57.01
2023-04-17T21:01:16.421Z,57.70
2023-04-17T21:03:44.306Z,55.35
2023-04-17T21:06:11.707Z,55.20
2023-04-17T21:08:39.218Z,55.45
2023-04-17T21:11:06.968Z,55.16
2023-04-17T21:13:34.850Z,55.51
2023-04-17T21:16:02.329Z,54.86
2023-04-17T21:18:30.015Z,53.21
2023-04-17T21:20:57.408Z,54.14
2023-04-17T21:23:24.735Z,57.08
2023-04-17T21:25:53.521Z,55.17
2023-04-17T21:28:20.967Z,54.64
2023-04-17T21:30:48.443Z,54.15
2023-04-17T21:33:16.067Z,53.40
2023-04-17T21:35:43.393Z,53.38
2023-04-17T21:38:10.718Z,53.89
2023-04-17T21:40:48.127Z,54.89
2023-04-17T21:43:18.292Z,54.04
2023-04-17T21:45:46.471Z,55.67
2023-04-17T21:48:16.688Z,54.92
2023-04-17T21:50:44.141Z,56.67
2023-04-17T21:53:11.771Z,56.63
2023-04-17T21:55:39.147Z,56.96
2023-04-17T21:58:07.066Z,60.69
2023-04-17T22:00:34.717Z,59.36
2023-04-17T22:03:02.399Z,60.34
2023-04-17T22:05:29.797Z,57.75
2023-04-17T22:07:57.195Z,60.13
2023-04-17T22:10:24.946Z,58.59
2023-04-17T22:12:52.434Z,57.44
2023-04-17T22:15:19.856Z,58.71
2023-04-17T22:17:47.531Z,57.47
2023-04-17T22:20:14.920Z,59.94
2023-04-17T22:22:42.269Z,58.79
2023-04-17T22:25:09.898Z,60.84
2023-04-17T22:27:37.224Z,59.07
2023-04-17T22:30:07.286Z,60.68
2023-04-17T22:32:34.929Z,58.19
2023-04-17T22:35:02.736Z,57.36
2023-04-17T22:37:30.148Z,57.43
2023-04-17T22:39:57.796Z,59.15
2023-04-17T22:42:25.259Z,57.85
2023-04-17T22:44:52.686Z,57.15
2023-04-17T22:47:21.236Z,58.47
2023-04-17T22:49:48.640Z,58.08
2023-04-17T22:52:16.142Z,58.03
2023-04-17T22:54:43.763Z,58.32
2023-04-17T22:57:11.276Z,58.25
2023-04-17T22:59:38.634Z,57.89
2023-04-17T23:02:06.351Z,59.25
2023-04-17T23:04:33.741Z,58.08
2023-04-17T23:07:01.182Z,57.67
2023-04-17T23:09:28.782Z,57.27
2023-04-17T23:11:56.105Z,58.78
2023-04-17T23:14:23.495Z,58.07
2023-04-17T23:16:52.704Z,58.71
2023-04-17T23:19:21.192Z,59.39
2023-04-17T23:21:48.613Z,58.74
2023-04-17T23:24:16.246Z,57.65
2023-04-17T23:26:43.620Z,56.89
2023-04-17T23:29:11.007Z,56.46
2023-04-17T23:31:38.726Z,56.31
2023-04-17T23:34:06.122Z,57.12
2023-04-17T23:36:33.438Z,56.27
2023-04-17T23:39:01.331Z,55.70
2023-04-17T23:41:29.664Z,55.79
2023-04-17T23:43:57.213Z,56.57
2023-04-17T23:46:24.866Z,55.91
2023-04-17T23:48:52.309Z,55.73
2023-04-17T23:51:19.658Z,55.67
2023-04-17T23:53:47.288Z,55.81
2023-04-17T23:56:14.738Z,57.58
2023-04-17T23:58:42.072Z,57.53
